Map

Track Data

SID SEASON NUMBER BASIN SUBBASIN NAME ISO_TIME NATURE LAT LON WMO_WIND WMO_PRES WMO_AGENCY TRACK_TYPE DIST2LAND LANDFALL IFLAG USA_AGENCY USA_ATCF_ID USA_LAT USA_LON USA_RECORD USA_STATUS USA_WIND USA_PRES USA_SSHS USA_R34_NE USA_R34_SE USA_R34_SW USA_R34_NW USA_R50_NE USA_R50_SE USA_R50_SW USA_R50_NW USA_R64_NE USA_R64_SE USA_R64_SW USA_R64_NW USA_POCI USA_ROCI USA_RMW USA_EYE TOKYO_LAT TOKYO_LON TOKYO_GRADE TOKYO_WIND TOKYO_PRES TOKYO_R50_DIR TOKYO_R50_LONG TOKYO_R50_SHORT TOKYO_R30_DIR TOKYO_R30_LONG TOKYO_R30_SHORT TOKYO_LAND CMA_LAT CMA_LON CMA_CAT CMA_WIND CMA_PRES HKO_LAT HKO_LON HKO_CAT HKO_WIND HKO_PRES NEWDELHI_LAT NEWDELHI_LON NEWDELHI_GRADE NEWDELHI_WIND NEWDELHI_PRES NEWDELHI_CI NEWDELHI_DP NEWDELHI_POCI REUNION_LAT REUNION_LON REUNION_TYPE REUNION_WIND REUNION_PRES REUNION_TNUM REUNION_CI REUNION_RMW REUNION_R34_NE REUNION_R34_SE REUNION_R34_SW REUNION_R34_NW REUNION_R50_NE REUNION_R50_SE REUNION_R50_SW REUNION_R50_NW REUNION_R64_NE REUNION_R64_SE REUNION_R64_SW REUNION_R64_NW BOM_LAT BOM_LON BOM_TYPE BOM_WIND BOM_PRES BOM_TNUM BOM_CI BOM_RMW BOM_R34_NE BOM_R34_SE BOM_R34_SW BOM_R34_NW BOM_R50_NE BOM_R50_SE BOM_R50_SW BOM_R50_NW BOM_R64_NE BOM_R64_SE BOM_R64_SW BOM_R64_NW BOM_ROCI BOM_POCI BOM_EYE BOM_POS_METHOD BOM_PRES_METHOD NADI_LAT NADI_LON NADI_CAT NADI_WIND NADI_PRES WELLINGTON_LAT WELLINGTON_LON WELLINGTON_WIND WELLINGTON_PRES DS824_LAT DS824_LON DS824_STAGE DS824_WIND DS824_PRES TD9636_LAT TD9636_LON TD9636_STAGE TD9636_WIND TD9636_PRES TD9635_LAT TD9635_LON TD9635_WIND TD9635_PRES TD9635_ROCI NEUMANN_LAT NEUMANN_LON NEUMANN_CLASS NEUMANN_WIND NEUMANN_PRES MLC_LAT MLC_LON MLC_CLASS MLC_WIND MLC_PRES USA_GUST BOM_GUST BOM_GUST_PER REUNION_GUST REUNION_GUST_PER USA_SEAHGT USA_SEARAD_NE USA_SEARAD_SE USA_SEARAD_SW USA_SEARAD_NW STORM_SPEED STORM_DIR
1925153N19071 1925 20 NI AS NOT_NAMED 1925-06-02 00:00:00 TS 18.8000 71.2000 main 168 168 _________O____ -1 18.8000 71.2000 TC 30 0 0
1925153N19071 1925 20 NI AS NOT_NAMED 1925-06-02 03:00:00 TS 18.8000 71.2000 main 168 168 _________PO___ -1 18.8000 71.2000 TC 30 18.8000 71.2000 1 0 0
1925153N19071 1925 20 NI AS NOT_NAMED 1925-06-02 06:00:00 TS 18.8113 71.1969 main 168 168 _________OP___ -1 18.8000 71.2000 TC 30 18.8281 71.1923 1 0 0
1925153N19071 1925 20 NI AS NOT_NAMED 1925-06-02 09:00:00 TS 18.8193 71.1947 main 168 168 _________PP___ -1 18.8000 71.2000 TC 30 18.8450 71.1876 1 0 0
1925153N19071 1925 20 NI AS NOT_NAMED 1925-06-02 12:00:00 TS 18.8197 71.1946 main 168 168 _________OP___ -1 18.8000 71.2000 TC 30 18.8394 71.1892 1 0 0
1925153N19071 1925 20 NI AS NOT_NAMED 1925-06-02 15:00:00 TS 18.8000 71.2000 main 168 168 _________PO___ -1 18.8000 71.2000 TC 30 18.8000 71.2000 1 1 0
1925153N19071 1925 20 NI AS NOT_NAMED 1925-06-02 18:00:00 TS 18.7634 71.2100 main 168 168 _________OP___ -1 18.8000 71.2000 TC 30 18.7269 71.2201 1 1 165
1925153N19071 1925 20 NI AS NOT_NAMED 1925-06-02 21:00:00 TS 18.7062 71.2260 main 169 169 _________PP___ -1 18.7475 71.2149 TC 30 18.6650 71.2370 1 0 135
1925153N19071 1925 20 NI AS NOT_NAMED 1925-06-03 00:00:00 TS 18.7353 71.2178 main 169 168 _________OP___ -1 18.8000 71.2000 TC 30 18.6706 71.2355 1 2 346
1925153N19071 1925 20 NI AS NOT_NAMED 1925-06-03 03:00:00 TS 18.9338 71.1612 main 168 157 _________PO___ -1 19.0675 71.1224 TC 30 18.8000 71.2000 1 6 343
1925153N19071 1925 20 NI AS NOT_NAMED 1925-06-03 06:00:00 TS 19.3124 71.0358 main 157 101 _________OP___ -1 19.5000 71.0000 TC 30 19.1248 71.0715 1 9 343
1925153N19071 1925 20 NI AS NOT_NAMED 1925-06-03 09:00:00 TS 19.8039 70.8748 main 101 44 _________PP___ -1 20.0350 70.8353 TC 30 19.5727 70.9144 1 11 345
1925153N19071 1925 20 NI AS NOT_NAMED 1925-06-03 12:00:00 TS 20.3421 70.7374 main 45 0 _________OP___ -1 20.6000 70.7000 TC 30 20.0842 70.7748 1 11 349
1925153N19071 1925 20 NI AS NOT_NAMED 1925-06-03 15:00:00 TS 20.8362 70.6700 main 0 0 _________PO___ -1 21.0724 70.6401 TC 30 20.6000 70.7000 1 10 0
1925153N19071 1925 20 NI AS NOT_NAMED 1925-06-03 18:00:00 TS 21.2945 70.7240 main 0 0 _________OP___ -1 21.5000 70.7000 TC 30 21.0890 70.7479 1 10 13
1925153N19071 1925 20 NI AS NOT_NAMED 1925-06-03 21:00:00 TS 21.7575 70.8965 main 0 0 _________PP___ -1 21.9526 70.9270 TC 30 21.5625 70.8660 1 9 23
1925153N19071 1925 20 NI AS NOT_NAMED 1925-06-04 00:00:00 TS 22.1398 71.1131 main 0 0 _________OP___ -1 22.3000 71.2000 TC 30 21.9797 71.0262 1 7 30
1925153N19071 1925 20 NI AS NOT_NAMED 1925-06-04 03:00:00 TS 22.3762 71.2826 main 0 0 _________PO___ -1 22.4524 71.3652 TC 30 22.3000 71.2000 1 5 38
1925153N19071 1925 20 NI AS NOT_NAMED 1925-06-04 06:00:00 TS 22.4918 71.4155 main 0 0 _________OP___ -1 22.5000 71.5000 TC 30 22.4836 71.3311 1 3 53
1925153N19071 1925 20 NI AS NOT_NAMED 1925-06-04 09:00:00 TS 22.5636 71.5565 main 0 0 _________PP___ -1 22.5575 71.6425 TC 30 22.5698 71.4705 1 3 69
1925153N19071 1925 20 NI AS NOT_NAMED 1925-06-04 12:00:00 TS 22.5980 71.7124 main 0 0 _________OP___ -1 22.6000 71.8000 TC 30 22.5961 71.6247 1 3 78
1925153N19071 1925 20 NI AS NOT_NAMED 1925-06-04 15:00:00 TS 22.6287 71.8925 main 0 0 _________PO___ -1 22.6575 71.9850 TC 30 22.6000 71.8000 1 4 78
1925153N19071 1925 20 NI AS NOT_NAMED 1925-06-04 18:00:00 TS 22.6695 72.0876 main 0 0 _________OP___ -1 22.7000 72.2000 TC 30 22.6391 71.9751 1 4 82
1925153N19071 1925 20 NI AS NOT_NAMED 1925-06-04 21:00:00 TS 22.6822 72.2976 main 0 0 _________PP___ -1 22.6999 72.4201 TC 30 22.6645 72.1752 1 4 87
1925153N19071 1925 20 NI AS NOT_NAMED 1925-06-05 00:00:00 TS 22.6913 72.5563 main 0 0 _________OP___ -1 22.7000 72.7000 TC 30 22.6827 72.4126 1 5 86
1925153N19071 1925 20 NI AS NOT_NAMED 1925-06-05 03:00:00 TS 22.7250 72.8887 main 0 0 _________PO___ -1 22.7500 73.0774 TC 30 22.7000 72.7000 1 7 84
1925153N19071 1925 20 NI AS NOT_NAMED 1925-06-05 06:00:00 TS 22.7566 73.2790 main 0 0 _________OP___ -1 22.8000 73.5000 TC 30 22.7132 73.0580 1 7 87
1925153N19071 1925 20 NI AS NOT_NAMED 1925-06-05 09:00:00 TS 22.7640 73.6852 main 0 0 _________PP___ -1 22.8000 73.9076 TC 30 22.7280 73.4629 1 8 88
1925153N19071 1925 20 NI AS NOT_NAMED 1925-06-05 12:00:00 TS 22.7769 74.0931 main 0 0 _________OP___ -1 22.8000 74.3000 TC 30 22.7537 73.8862 1 7 86
1925153N19071 1925 20 NI AS NOT_NAMED 1925-06-05 15:00:00 TS 22.8137 74.4788 main 0 0 _________PO___ -1 22.8274 74.6576 TC 30 22.8000 74.3000 1 7 82
1925153N19071 1925 20 NI AS NOT_NAMED 1925-06-05 18:00:00 TS 22.8724 74.8124 main 0 0 _________OP___ -1 22.9000 75.0000 TC 30 22.8448 74.6248 1 6 76
1925153N19071 1925 20 NI AS NOT_NAMED 1925-06-05 21:00:00 TS 22.9640 75.1273 main 0 0 _________PP___ -1 23.0121 75.3129 TC 30 22.9158 74.9418 1 7 69
1925153N19071 1925 20 NI AS NOT_NAMED 1925-06-06 00:00:00 TS 23.1145 75.4939 main 0 0 _________OP___ -1 23.2000 75.7000 TC 30 23.0289 75.2878 1 9 64
1925153N19071 1925 20 NI AS NOT_NAMED 1925-06-06 03:00:00 TS 23.3388 75.9812 main 0 0 _________PO___ -1 23.4776 76.2623 TC 30 23.2000 75.7000 1 11 63
1925153N19071 1925 20 NI AS NOT_NAMED 1925-06-06 06:00:00 TS 23.6196 76.5697 main 0 0 _________OP___ -1 23.8000 76.9000 TC 30 23.4392 76.2395 1 12 62
1925153N19071 1925 20 NI AS NOT_NAMED 1925-06-06 09:00:00 TS 23.9167 77.1771 main 0 0 _________PP___ -1 24.0998 77.5077 TC 30 23.7336 76.8465 1 13 61
1925153N19071 1925 20 NI AS NOT_NAMED 1925-06-06 12:00:00 TS 24.2305 77.7902 main 0 0 _________OP___ -1 24.4000 78.1000 TC 30 24.0610 77.4804 1 13 60
1925153N19071 1925 20 NI BB NOT_NAMED 1925-06-06 15:00:00 TS 24.5461 78.3827 main 0 0 _________PO___ -1 24.6923 78.6654 TC 30 24.4000 78.1000 1 12 59
1925153N19071 1925 20 NI BB NOT_NAMED 1925-06-06 18:00:00 TS 24.8477 78.8988 main 0 0 _________OP___ -1 25.0000 79.2000 TC 30 24.7335 78.6729 1 11 56
1925153N19071 1925 20 NI BB NOT_NAMED 1925-06-06 21:00:00 TS 25.1722 79.4052 main 0 0 _________PP___ -1 25.3403 79.7069 TC 30 25.0601 79.2040 1 11 54
1925153N19071 1925 20 NI BB NOT_NAMED 1925-06-07 00:00:00 TS 25.4878 79.8721 main 0 0 _________OP___ -1 25.7000 80.2000 TC 30 25.3816 79.7082 1 9 54
1925153N19071 1925 20 NI BB NOT_NAMED 1925-06-07 03:00:00 NR 25.7000 80.2000 main 0 __________O___ -1 TC 25.7000 80.2000 1 7 54

About IBTrACS Database

This database is a web-friendly format of International Best Track Archive for Climate Stewardship (IBTrACS), a global best track data archive curated by NOAA dating back to 1842.

Updated: 2021-10-19